Airfield :
LOGIN :

Register | Disclaimer

   EN    FR    IT 

 










Legend :    VFR   Marginal VFR   IFR   Intensive IFR   Very Intensive IFR
Visi :
Ceiling :
>= 8 km
>= 3000ft
5 to 8 km
1000 to 3000 ft
1500m to 5 km
500 to 1000 ft
800 to 1500m
200 to 500 ft
< 800m
< 200 ft
Symbols :   Thunderstorms  Fog  Heavy snow  Heavy precipitations  Wind > 20 kt
SIGMETs :     Misc.  Thunderstorms  Icing  Turbulence  Mountain Waves  Volcanic Ashes






- Airport Elevation : 291 ft
- IATA code : ORY


LFPO - Paris-Orly

CURRENT METAR :
  • 150400Z 03006KT CAVOK 03/M00 Q1029 NOSIG

EXPIRED METARs :
  • 150330Z 01006KT CAVOK 02/M00 Q1028 NOSIG
  • 150300Z 02005KT CAVOK 03/M00 Q1028 NOSIG
  • 150230Z 03006KT CAVOK 03/M00 Q1028 NOSIG
  • 150200Z 03007KT CAVOK 04/00 Q1028 NOSIG
  • 150130Z 02008KT CAVOK 04/00 Q1028 NOSIG

TAF TAF LFPO
Valid from the 15 at 00:00 until the 16 at 06:00 UTC


142300Z 1500/1606 02008KT CAVOK
PROB30
TEMPO 1515/1517 -SHRA SCT060TCU
ATIS : +33 1 49 75 65 80



MET'MAP, your aeronautical weather chart ! - Copyright ORBIFLY December 2007 - Disclaimer

ORBIFLY MET'MAP TEAM :

Programming & Development : Alexandra Zaïnal
Concept & original design : Baudouin d'Aumeries
Assistance for programming : Marc-Olivier Méhu
Technical & hardware support : Manuel Goepfert

Contact : metmap@orbifly.com




SOURCES & CREDITS :

   NOAA